createdAt,value
2018-09-24T00:01:45.017Z,9.97
2018-09-24T00:04:12.445Z,9.50
2018-09-24T00:06:39.862Z,8.03
2018-09-24T00:09:07.316Z,9.13
2018-09-24T00:11:34.733Z,9.03
2018-09-24T00:14:02.166Z,9.23
2018-09-24T00:16:29.587Z,9.47
2018-09-24T00:18:57.015Z,11.13
2018-09-24T00:21:24.428Z,9.87
2018-09-24T00:23:51.865Z,10.57
2018-09-24T00:26:19.271Z,10.80
2018-09-24T00:28:46.720Z,10.87
2018-09-24T00:31:14.143Z,10.57
2018-09-24T00:33:41.558Z,13.67
2018-09-24T00:36:09.000Z,13.40
2018-09-24T00:38:36.416Z,13.37
2018-09-24T00:41:03.846Z,13.10
2018-09-24T00:43:31.327Z,13.03
2018-09-24T00:45:58.696Z,11.57
2018-09-24T00:48:26.119Z,13.47
2018-09-24T00:50:53.518Z,13.13
2018-09-24T00:53:20.951Z,11.83
2018-09-24T00:55:48.363Z,10.87
2018-09-24T00:58:15.800Z,11.10
2018-09-24T01:00:43.258Z,11.10
2018-09-24T01:03:10.718Z,11.90
2018-09-24T01:05:40.779Z,12.33
2018-09-24T01:08:08.181Z,11.53
2018-09-24T01:10:35.593Z,11.40
2018-09-24T01:13:03.038Z,9.87
2018-09-24T01:15:30.684Z,11.10
2018-09-24T01:17:58.094Z,10.80
2018-09-24T01:20:25.527Z,11.47
2018-09-24T01:22:52.958Z,10.40
2018-09-24T01:25:20.370Z,11.13
2018-09-24T01:27:47.812Z,10.87
2018-09-24T01:30:15.233Z,10.80
2018-09-24T01:32:42.661Z,10.73
2018-09-24T01:35:10.075Z,10.43
2018-09-24T01:37:38.681Z,10.07
2018-09-24T01:40:06.087Z,10.10
2018-09-24T01:42:33.501Z,9.57
2018-09-24T01:45:00.937Z,10.07
2018-09-24T01:47:28.345Z,9.93
2018-09-24T01:49:55.758Z,9.10
2018-09-24T01:52:23.178Z,8.37
2018-09-24T01:54:50.595Z,10.13
2018-09-24T01:57:18.034Z,11.23
2018-09-24T01:59:45.448Z,10.13
2018-09-24T02:02:12.852Z,11.33
2018-09-24T02:04:40.278Z,11.50
2018-09-24T02:07:07.697Z,12.10
2018-09-24T02:09:35.137Z,13.17
2018-09-24T02:12:02.545Z,12.47
2018-09-24T02:14:29.980Z,11.17
2018-09-24T02:16:57.374Z,13.10
2018-09-24T02:19:24.794Z,12.60
2018-09-24T02:21:52.212Z,13.70
2018-09-24T02:24:19.644Z,12.00
2018-09-24T02:26:47.047Z,11.87
2018-09-24T02:29:14.464Z,12.00
2018-09-24T02:31:41.876Z,11.33
2018-09-24T02:34:09.323Z,12.03
2018-09-24T02:36:36.722Z,12.87
2018-09-24T02:39:04.159Z,14.17
2018-09-24T02:41:31.578Z,12.03
2018-09-24T02:43:58.986Z,12.80
2018-09-24T02:46:26.471Z,11.40
2018-09-24T02:48:53.878Z,10.47
2018-09-24T02:51:21.294Z,11.17
2018-09-24T02:53:48.742Z,11.73
2018-09-24T02:56:16.168Z,12.03
2018-09-24T02:58:43.604Z,12.47
2018-09-24T03:01:11.074Z,12.00
2018-09-24T03:03:38.436Z,13.00
2018-09-24T03:06:05.842Z,10.93
2018-09-24T03:08:33.279Z,11.13
2018-09-24T03:11:00.751Z,12.33
2018-09-24T03:13:28.123Z,11.00
2018-09-24T03:15:55.561Z,10.47
2018-09-24T03:18:22.982Z,10.43
2018-09-24T03:20:50.407Z,9.60
2018-09-24T03:23:17.823Z,9.97
2018-09-24T03:25:45.263Z,8.50
2018-09-24T03:28:12.691Z,7.93
2018-09-24T03:30:40.101Z,8.50
2018-09-24T03:33:07.525Z,8.50
2018-09-24T03:35:34.934Z,8.40
2018-09-24T03:38:02.373Z,9.20
2018-09-24T03:40:29.814Z,8.40
2018-09-24T03:42:57.237Z,7.80
2018-09-24T03:45:24.647Z,6.43
2018-09-24T03:47:52.055Z,6.87
2018-09-24T03:50:19.478Z,7.23
2018-09-24T03:52:46.883Z,7.10
2018-09-24T03:55:14.331Z,7.93
2018-09-24T03:57:41.761Z,6.03
2018-09-24T04:00:09.170Z,7.30
2018-09-24T04:02:36.603Z,7.93
2018-09-24T04:05:22.279Z,6.63
2018-09-24T04:08:07.738Z,7.43
2018-09-24T04:10:53.222Z,6.80
2018-09-24T04:13:39.012Z,7.20
2018-09-24T04:16:24.624Z,7.00
2018-09-24T04:19:10.170Z,7.87
2018-09-24T04:21:56.022Z,7.83
2018-09-24T04:24:41.549Z,7.87
2018-09-24T04:27:26.901Z,6.80
2018-09-24T04:30:13.156Z,6.83
2018-09-24T04:32:58.523Z,7.53
2018-09-24T04:35:44.195Z,6.10
2018-09-24T04:38:29.671Z,6.87
2018-09-24T04:41:15.494Z,6.93
2018-09-24T04:44:01.196Z,6.13
2018-09-24T04:46:46.618Z,6.40
2018-09-24T04:53:00.790Z,6.00
2018-09-24T04:55:46.614Z,6.40
2018-09-24T05:02:01.579Z,5.47
2018-09-24T05:04:47.167Z,5.97
2018-09-24T05:07:32.694Z,5.87
2018-09-24T05:10:18.532Z,5.73
2018-09-24T05:13:04.043Z,5.70
2018-09-24T05:15:49.616Z,5.40
2018-09-24T05:18:35.276Z,5.50
2018-09-24T05:21:20.597Z,6.17
2018-09-24T05:24:06.262Z,5.67
2018-09-24T05:26:51.623Z,6.73
2018-09-24T05:29:37.247Z,6.37
2018-09-24T05:32:22.950Z,5.50
2018-09-24T05:35:08.569Z,6.33
2018-09-24T05:37:54.242Z,6.13
2018-09-24T05:40:39.747Z,6.27
2018-09-24T05:43:25.573Z,5.40
2018-09-24T05:46:10.953Z,6.07
2018-09-24T05:48:56.374Z,5.70
2018-09-24T05:51:41.832Z,5.13
2018-09-24T05:54:27.617Z,5.67
2018-09-24T05:57:13.399Z,6.27
2018-09-24T05:59:58.904Z,5.00
2018-09-24T06:02:44.176Z,5.30
2018-09-24T06:05:29.682Z,4.60
2018-09-24T06:08:15.211Z,4.53
2018-09-24T06:11:00.821Z,4.77
2018-09-24T06:13:46.139Z,4.50
2018-09-24T06:16:31.785Z,4.17
2018-09-24T06:19:17.391Z,4.77
2018-09-24T06:22:02.920Z,4.50
2018-09-24T06:24:48.465Z,4.20
2018-09-24T06:27:34.162Z,4.53
2018-09-24T06:30:19.595Z,4.50
2018-09-24T06:33:05.354Z,3.90
2018-09-24T06:35:51.032Z,4.40
2018-09-24T06:38:36.579Z,4.90
2018-09-24T06:41:22.239Z,5.30
2018-09-24T06:44:07.866Z,3.57
2018-09-24T06:46:53.665Z,4.30
2018-09-24T06:49:39.435Z,4.00
2018-09-24T06:52:24.799Z,4.00
2018-09-24T06:55:10.329Z,5.50
2018-09-24T06:57:56.026Z,4.63
2018-09-24T07:00:41.884Z,5.50
2018-09-24T07:03:27.768Z,6.47
2018-09-24T07:06:13.517Z,4.77
2018-09-24T07:08:59.215Z,5.90
2018-09-24T07:11:44.661Z,4.93
2018-09-24T07:14:30.310Z,4.20
2018-09-24T07:17:15.782Z,4.67
2018-09-24T07:20:01.471Z,3.77
2018-09-24T07:22:47.398Z,3.57
2018-09-24T07:25:32.747Z,4.07
2018-09-24T07:28:18.443Z,3.67
2018-09-24T07:31:03.939Z,4.03
2018-09-24T07:33:49.421Z,4.60
2018-09-24T07:36:34.989Z,4.40
2018-09-24T07:39:20.585Z,3.90
2018-09-24T07:42:06.302Z,4.23
2018-09-24T07:44:51.804Z,3.73
2018-09-24T07:47:37.272Z,4.10
2018-09-24T07:50:23.010Z,3.87
2018-09-24T07:53:08.516Z,4.00
2018-09-24T07:55:54.387Z,3.03
2018-09-24T07:58:40.018Z,3.27
2018-09-24T08:01:25.508Z,3.90
2018-09-24T08:04:11.006Z,4.33
2018-09-24T08:06:56.402Z,4.13
2018-09-24T08:09:42.313Z,3.30
2018-09-24T08:12:28.007Z,3.13
2018-09-24T08:15:13.619Z,3.20
2018-09-24T08:17:59.223Z,3.67
2018-09-24T08:20:45.067Z,2.83
2018-09-24T08:23:30.640Z,3.20
2018-09-24T08:26:15.919Z,2.90
2018-09-24T08:29:01.732Z,3.30
2018-09-24T08:31:47.283Z,2.87
2018-09-24T08:34:33.032Z,3.10
2018-09-24T08:37:18.452Z,3.07
2018-09-24T08:40:03.833Z,2.80
2018-09-24T08:42:49.457Z,3.33
2018-09-24T08:45:35.156Z,2.57
2018-09-24T08:48:20.944Z,2.87
2018-09-24T08:51:06.864Z,3.00
2018-09-24T08:53:52.506Z,2.80
2018-09-24T08:56:38.075Z,2.63
2018-09-24T08:59:23.737Z,2.40
2018-09-24T09:02:09.507Z,2.23
2018-09-24T09:04:55.186Z,2.10
2018-09-24T09:07:40.645Z,2.10
2018-09-24T09:10:26.333Z,2.53
2018-09-24T09:13:11.749Z,2.13
2018-09-24T09:15:57.444Z,2.27
2018-09-24T09:18:43.144Z,2.50
2018-09-24T09:21:28.854Z,2.30
2018-09-24T09:24:14.463Z,2.27
2018-09-24T09:26:59.938Z,2.43
2018-09-24T09:29:45.413Z,2.93
2018-09-24T09:32:31.037Z,2.40
2018-09-24T09:35:16.601Z,2.70
2018-09-24T09:38:02.408Z,2.37
2018-09-24T09:40:48.011Z,2.50
2018-09-24T09:43:33.566Z,2.67
2018-09-24T09:46:19.304Z,2.73
2018-09-24T09:49:04.837Z,2.13
2018-09-24T09:51:50.497Z,2.67
2018-09-24T09:54:35.889Z,2.10
2018-09-24T09:57:21.373Z,1.80
2018-09-24T10:00:07.237Z,1.80
2018-09-24T10:02:53.022Z,1.87
2018-09-24T10:05:38.428Z,2.20
2018-09-24T10:08:23.877Z,2.50
2018-09-24T10:11:09.259Z,2.07
2018-09-24T10:13:54.877Z,2.00
2018-09-24T10:16:40.416Z,1.80
2018-09-24T10:19:26.096Z,2.40
2018-09-24T10:22:11.750Z,2.20
2018-09-24T10:24:57.299Z,2.47
2018-09-24T10:27:43.112Z,2.30
2018-09-24T10:30:28.735Z,2.83
2018-09-24T10:33:14.604Z,2.80
2018-09-24T10:36:00.228Z,2.50
2018-09-24T10:38:45.752Z,2.80
2018-09-24T10:41:31.709Z,2.67
2018-09-24T10:44:17.174Z,3.00
2018-09-24T10:47:03.036Z,3.10
2018-09-24T10:49:48.750Z,2.80
2018-09-24T10:52:34.316Z,3.00
2018-09-24T10:55:20.501Z,2.77
2018-09-24T10:58:06.049Z,3.07
2018-09-24T11:00:51.636Z,1.97
2018-09-24T11:03:37.096Z,2.10
2018-09-24T11:06:22.698Z,2.40
2018-09-24T11:09:08.327Z,1.93
2018-09-24T11:11:54.103Z,1.30
2018-09-24T11:14:39.820Z,1.53
2018-09-24T11:17:25.476Z,1.30
2018-09-24T11:20:11.020Z,1.50
2018-09-24T11:22:56.673Z,1.50
2018-09-24T11:25:42.208Z,1.57
2018-09-24T11:28:28.080Z,1.10
2018-09-24T11:31:13.652Z,1.50
2018-09-24T11:33:59.142Z,1.40
2018-09-24T11:36:44.860Z,1.33
2018-09-24T11:39:30.661Z,1.40
2018-09-24T11:42:16.019Z,1.30
2018-09-24T11:45:01.593Z,1.47
2018-09-24T11:47:47.488Z,1.10
2018-09-24T11:50:33.309Z,1.50
2018-09-24T11:53:18.734Z,1.50
2018-09-24T11:56:04.626Z,1.60
2018-09-24T11:58:50.323Z,1.30
2018-09-24T12:01:35.754Z,1.87
2018-09-24T12:04:21.724Z,1.40
2018-09-24T12:07:07.249Z,1.33
2018-09-24T12:09:52.851Z,1.90
2018-09-24T12:12:38.512Z,1.50
2018-09-24T12:15:23.998Z,1.60
2018-09-24T12:18:09.658Z,2.40
2018-09-24T12:20:55.177Z,1.27
2018-09-24T12:23:40.902Z,1.50
2018-09-24T12:26:26.356Z,1.63
2018-09-24T12:29:12.146Z,1.47
2018-09-24T12:31:57.714Z,2.20
2018-09-24T12:34:43.279Z,1.37
2018-09-24T12:37:28.912Z,1.50
2018-09-24T12:40:14.321Z,1.50
2018-09-24T12:43:00.002Z,1.50
2018-09-24T12:45:45.807Z,1.20
2018-09-24T12:48:31.232Z,1.60
2018-09-24T12:51:16.813Z,1.20
2018-09-24T12:54:02.385Z,1.50
2018-09-24T12:56:47.877Z,1.67
2018-09-24T12:59:33.899Z,1.67
2018-09-24T13:02:19.693Z,3.20
2018-09-24T13:05:05.535Z,1.50
2018-09-24T13:07:51.087Z,1.57
2018-09-24T13:10:36.935Z,1.40
2018-09-24T13:13:22.441Z,1.40
2018-09-24T13:16:08.340Z,1.50
2018-09-24T13:18:53.805Z,1.30
2018-09-24T13:21:39.494Z,1.87
2018-09-24T13:24:24.983Z,1.40
2018-09-24T13:27:10.858Z,2.87
2018-09-24T13:29:56.532Z,1.70
2018-09-24T13:32:42.172Z,1.80
2018-09-24T13:35:27.830Z,1.87
2018-09-24T13:38:13.664Z,1.40
2018-09-24T13:40:59.319Z,1.30
2018-09-24T13:43:44.864Z,1.43
2018-09-24T13:46:30.442Z,1.30
2018-09-24T13:49:16.360Z,1.10
2018-09-24T13:52:01.896Z,1.10
2018-09-24T13:54:47.667Z,1.17
2018-09-24T13:57:33.312Z,1.50
2018-09-24T14:00:19.238Z,1.10
2018-09-24T14:03:04.917Z,1.20
2018-09-24T14:05:50.278Z,1.40
2018-09-24T14:08:35.893Z,1.60
2018-09-24T14:11:21.421Z,1.50
2018-09-24T14:14:07.031Z,1.30
2018-09-24T14:16:52.538Z,1.80
2018-09-24T14:19:38.129Z,1.40
2018-09-24T14:22:23.626Z,1.30
2018-09-24T14:25:29.290Z,1.80
2018-09-24T14:28:14.726Z,2.00
2018-09-24T14:31:00.047Z,1.10
2018-09-24T14:33:45.531Z,1.20
2018-09-24T14:36:31.278Z,1.40
2018-09-24T14:39:16.729Z,1.77
2018-09-24T14:42:02.285Z,1.00
2018-09-24T14:44:47.991Z,1.67
2018-09-24T14:47:33.609Z,1.57
2018-09-24T14:50:18.989Z,1.67
2018-09-24T14:53:04.588Z,1.50
2018-09-24T14:55:49.988Z,1.20
2018-09-24T14:58:35.718Z,1.50
2018-09-24T15:01:20.983Z,1.60
2018-09-24T15:04:06.649Z,1.67
2018-09-24T15:06:52.284Z,1.90
2018-09-24T15:09:37.856Z,1.70
2018-09-24T15:12:23.660Z,1.67
2018-09-24T15:15:08.993Z,1.33
2018-09-24T15:17:54.330Z,1.60
2018-09-24T15:20:40.061Z,1.80
2018-09-24T15:23:25.837Z,1.60
2018-09-24T15:26:11.497Z,1.60
2018-09-24T15:28:57.195Z,2.50
2018-09-24T15:31:42.937Z,1.53
2018-09-24T15:34:28.664Z,1.70
2018-09-24T15:37:14.082Z,2.03
2018-09-24T15:39:59.925Z,2.00
2018-09-24T15:42:45.697Z,1.83
2018-09-24T15:45:31.061Z,1.70
2018-09-24T15:48:16.505Z,1.63
2018-09-24T15:51:02.066Z,1.67
2018-09-24T15:53:47.425Z,1.50
2018-09-24T15:56:33.036Z,1.93
2018-09-24T15:59:18.503Z,1.60
2018-09-24T16:02:04.082Z,2.97
2018-09-24T16:04:49.784Z,1.57
2018-09-24T16:07:35.352Z,1.73
2018-09-24T16:10:21.100Z,2.67
2018-09-24T16:13:06.943Z,1.80
2018-09-24T16:15:52.515Z,2.03
2018-09-24T16:18:37.882Z,1.70
2018-09-24T16:21:23.531Z,1.60
2018-09-24T16:24:09.165Z,1.83
2018-09-24T16:26:54.996Z,2.47
2018-09-24T16:29:40.831Z,1.63
2018-09-24T16:32:26.358Z,2.00
2018-09-24T16:35:12.084Z,1.77
2018-09-24T16:37:57.376Z,1.83
2018-09-24T16:40:43.085Z,1.87
2018-09-24T16:43:29.199Z,2.00
2018-09-24T16:46:14.706Z,1.87
2018-09-24T16:49:00.517Z,2.13
2018-09-24T16:51:46.118Z,2.40
2018-09-24T16:54:31.645Z,2.27
2018-09-24T16:57:17.297Z,2.30
2018-09-24T17:00:02.836Z,2.00
2018-09-24T17:02:48.449Z,2.27
2018-09-24T17:05:33.794Z,1.70
2018-09-24T17:08:19.158Z,2.40
2018-09-24T17:11:05.043Z,2.13
2018-09-24T17:13:50.636Z,2.43
2018-09-24T17:16:36.164Z,2.13
2018-09-24T17:19:21.693Z,2.57
2018-09-24T17:22:07.393Z,2.37
2018-09-24T17:24:53.047Z,1.90
2018-09-24T17:27:38.354Z,1.90
2018-09-24T17:30:24.203Z,1.80
2018-09-24T17:33:10.005Z,2.20
2018-09-24T17:35:55.761Z,2.37
2018-09-24T17:38:41.453Z,2.43
2018-09-24T17:41:26.889Z,2.23
2018-09-24T17:44:12.572Z,1.93
2018-09-24T17:46:57.952Z,2.30
2018-09-24T17:49:43.629Z,2.80
2018-09-24T17:52:29.275Z,3.50
2018-09-24T17:55:14.619Z,3.10
2018-09-24T17:58:00.546Z,3.53
2018-09-24T18:00:46.071Z,3.10
2018-09-24T18:03:31.622Z,3.57
2018-09-24T18:06:17.602Z,4.07
2018-09-24T18:09:02.928Z,2.50
2018-09-24T18:11:48.560Z,14.50
2018-09-24T18:14:34.238Z,25.80
2018-09-24T18:17:19.609Z,19.10
2018-09-24T18:20:05.497Z,4.90
2018-09-24T18:22:51.001Z,5.43
2018-09-24T18:25:36.402Z,4.50
2018-09-24T18:28:22.053Z,3.03
2018-09-24T18:31:07.745Z,2.43
2018-09-24T18:33:53.441Z,2.20
2018-09-24T18:36:38.757Z,2.30
2018-09-24T18:39:24.257Z,2.40
2018-09-24T18:42:09.751Z,2.20
2018-09-24T18:44:55.199Z,1.93
2018-09-24T18:47:40.939Z,3.40
2018-09-24T18:50:26.694Z,8.87
2018-09-24T18:53:12.366Z,4.90
2018-09-24T18:55:58.885Z,3.03
2018-09-24T18:58:44.509Z,2.70
2018-09-24T19:01:30.233Z,2.60
2018-09-24T19:04:15.851Z,3.10
2018-09-24T19:07:01.298Z,2.70
2018-09-24T19:09:46.735Z,2.90
2018-09-24T19:12:32.274Z,2.93
2018-09-24T19:15:17.815Z,2.97
2018-09-24T19:18:03.314Z,2.27
2018-09-24T19:20:49.234Z,4.00
2018-09-24T19:23:34.734Z,2.83
2018-09-24T19:26:20.603Z,3.00
2018-09-24T19:29:06.246Z,3.00
2018-09-24T19:31:51.614Z,3.00
2018-09-24T19:34:37.291Z,2.63
2018-09-24T19:37:23.072Z,3.30
2018-09-24T19:43:36.989Z,3.93
2018-09-24T19:46:22.355Z,3.33
2018-09-24T19:49:08.074Z,4.67
2018-09-24T19:51:53.501Z,3.80
2018-09-24T19:54:39.397Z,3.03
2018-09-24T19:57:24.924Z,3.07
2018-09-24T20:00:10.545Z,3.10
2018-09-24T20:02:56.364Z,3.70
2018-09-24T20:05:44.475Z,3.17
2018-09-24T20:08:30.263Z,3.40
2018-09-24T20:11:16.198Z,2.93
2018-09-24T20:14:01.644Z,3.30
2018-09-24T20:16:47.597Z,5.13
2018-09-24T20:19:35.520Z,3.27
2018-09-24T20:22:21.086Z,3.77
2018-09-24T20:25:06.947Z,3.47
2018-09-24T20:27:54.007Z,4.13
2018-09-24T20:34:09.220Z,4.50
2018-09-24T20:36:55.087Z,3.20
2018-09-24T20:39:41.209Z,3.23
2018-09-24T20:42:26.884Z,3.60
2018-09-24T20:45:12.566Z,2.97
2018-09-24T20:47:57.996Z,3.57
2018-09-24T20:50:43.349Z,3.00
2018-09-24T20:53:29.392Z,3.37
2018-09-24T20:56:15.169Z,3.73
2018-09-24T20:59:00.956Z,2.93
2018-09-24T21:01:46.273Z,3.17
2018-09-24T21:04:31.843Z,3.77
2018-09-24T21:07:17.530Z,4.27
2018-09-24T21:10:02.950Z,3.17
2018-09-24T21:12:48.457Z,3.33
2018-09-24T21:15:34.018Z,3.57
2018-09-24T21:18:19.792Z,3.40
2018-09-24T21:21:05.617Z,3.03
2018-09-24T21:27:20.987Z,3.70
2018-09-24T21:30:07.826Z,3.60
2018-09-24T21:32:53.378Z,3.53
2018-09-24T21:35:39.202Z,3.67
2018-09-24T21:38:24.688Z,4.20
2018-09-24T21:41:10.479Z,3.63
2018-09-24T21:43:56.077Z,3.93
2018-09-24T21:46:41.734Z,4.33
2018-09-24T21:49:27.399Z,4.27
2018-09-24T21:52:12.765Z,3.60
2018-09-24T21:54:58.490Z,3.80
2018-09-24T21:57:44.166Z,3.53
2018-09-24T22:00:29.566Z,3.20
2018-09-24T22:03:15.138Z,3.30
2018-09-24T22:06:00.709Z,3.43
2018-09-24T22:08:46.158Z,3.00
2018-09-24T22:11:31.883Z,3.20
2018-09-24T22:14:17.504Z,3.10
2018-09-24T22:17:03.024Z,3.23
2018-09-24T22:19:48.509Z,3.67
2018-09-24T22:22:34.036Z,3.67
2018-09-24T22:25:19.772Z,2.57
2018-09-24T22:28:05.358Z,3.27
2018-09-24T22:30:51.094Z,3.37
2018-09-24T22:33:36.531Z,2.90
2018-09-24T22:36:22.166Z,3.13
2018-09-24T22:39:07.776Z,3.23
2018-09-24T22:41:53.468Z,3.63
2018-09-24T22:44:39.213Z,2.57
2018-09-24T22:47:24.694Z,2.70
2018-09-24T22:50:10.492Z,3.17
2018-09-24T22:52:56.061Z,3.70
2018-09-24T22:55:41.725Z,3.03
2018-09-24T22:58:27.618Z,3.30
2018-09-24T23:01:13.243Z,3.10
2018-09-24T23:03:58.773Z,3.13
2018-09-24T23:06:44.518Z,3.50
2018-09-24T23:09:29.869Z,3.10
2018-09-24T23:12:15.579Z,3.80
2018-09-24T23:15:01.446Z,3.60
2018-09-24T23:17:47.126Z,3.70
2018-09-24T23:20:32.624Z,3.90
2018-09-24T23:23:18.154Z,3.63
2018-09-24T23:26:03.988Z,3.10
2018-09-24T23:28:49.563Z,3.80
2018-09-24T23:31:35.333Z,3.80
2018-09-24T23:34:20.821Z,4.37
2018-09-24T23:37:06.591Z,4.03
2018-09-24T23:39:52.292Z,4.40
2018-09-24T23:42:37.818Z,5.13
2018-09-24T23:45:23.333Z,4.03
2018-09-24T23:48:08.909Z,4.50
2018-09-24T23:50:54.708Z,4.97
2018-09-24T23:53:40.343Z,4.20
2018-09-24T23:56:25.812Z,3.63
2018-09-24T23:59:11.335Z,3.87
